Flugplatz Weiden in der Oberpfalz

Für EDQW sind keine METAR/TAF Berichte vorhanden.
Es werden die Flugwettermeldungen vom Flugplatz Grafenwohr Army Air Field in 12 km Entfernung angezeigt.

Bericht für ETIC

vom 27.09. um 00:56 UTC

Wind 3 kt aus 170°

Sichtweite 10 km oder mehr

bedeckt in 900 ft

Temperatur 7.0°C

Taupunkt 7.0°C

Luftfeuchtigkeit 100%

Luftdruck 999 hPa

ETIC 270056Z AUTO 17003KT 9999 OVC009 07/07 A2950 RMK AO2 SLP999 T00700070 $
Keine Prognose (TAF) verfügbar.
Impressum